sensor_id;sensor_type;location;lat;lon;timestamp;temperature;humidity
26641;DHT22;14269;47.358;0.724;2023-05-29T00:00:18;19.0;57.0
26641;DHT22;14269;47.358;0.724;2023-05-29T00:03:01;19.0;57.0
26641;DHT22;14269;47.358;0.724;2023-05-29T00:05:41;19.0;57.0
26641;DHT22;14269;47.358;0.724;2023-05-29T00:08:13;19.0;57.0
26641;DHT22;14269;47.358;0.724;2023-05-29T00:10:44;19.0;57.0
26641;DHT22;14269;47.358;0.724;2023-05-29T00:13:16;19.0;57.0
26641;DHT22;14269;47.358;0.724;2023-05-29T00:15:47;19.0;57.0
26641;DHT22;14269;47.358;0.724;2023-05-29T00:18:19;19.0;57.0
26641;DHT22;14269;47.358;0.724;2023-05-29T00:20:52;19.0;57.0
26641;DHT22;14269;47.358;0.724;2023-05-29T00:23:33;19.0;56.0
26641;DHT22;14269;47.358;0.724;2023-05-29T00:26:04;19.0;57.0
26641;DHT22;14269;47.358;0.724;2023-05-29T00:28:36;19.0;57.0
26641;DHT22;14269;47.358;0.724;2023-05-29T00:31:08;19.0;57.0
26641;DHT22;14269;47.358;0.724;2023-05-29T00:33:39;19.0;57.0
26641;DHT22;14269;47.358;0.724;2023-05-29T00:36:11;19.0;57.0
26641;DHT22;14269;47.358;0.724;2023-05-29T00:38:42;19.0;57.0
26641;DHT22;14269;47.358;0.724;2023-05-29T00:41:15;19.0;57.0
26641;DHT22;14269;47.358;0.724;2023-05-29T00:43:56;19.0;57.0
26641;DHT22;14269;47.358;0.724;2023-05-29T00:46:28;19.0;57.0
26641;DHT22;14269;47.358;0.724;2023-05-29T00:49:11;19.0;57.0
26641;DHT22;14269;47.358;0.724;2023-05-29T00:51:52;19.0;57.0
26641;DHT22;14269;47.358;0.724;2023-05-29T00:54:33;19.0;57.0
26641;DHT22;14269;47.358;0.724;2023-05-29T00:57:05;18.0;57.0
26641;DHT22;14269;47.358;0.724;2023-05-29T00:59:36;18.0;57.0
26641;DHT22;14269;47.358;0.724;2023-05-29T01:02:08;18.0;57.0
26641;DHT22;14269;47.358;0.724;2023-05-29T01:04:39;18.0;57.0
26641;DHT22;14269;47.358;0.724;2023-05-29T01:07:12;18.0;58.0
26641;DHT22;14269;47.358;0.724;2023-05-29T01:09:53;18.0;58.0
26641;DHT22;14269;47.358;0.724;2023-05-29T01:12:32;18.0;58.0
26641;DHT22;14269;47.358;0.724;2023-05-29T01:15:19;18.0;58.0
26641;DHT22;14269;47.358;0.724;2023-05-29T01:18:08;18.0;58.0
26641;DHT22;14269;47.358;0.724;2023-05-29T01:20:54;18.0;58.0
26641;DHT22;14269;47.358;0.724;2023-05-29T01:23:40;18.0;58.0
26641;DHT22;14269;47.358;0.724;2023-05-29T01:26:54;18.0;58.0
26641;DHT22;14269;47.358;0.724;2023-05-29T01:29:38;18.0;58.0
26641;DHT22;14269;47.358;0.724;2023-05-29T01:32:18;18.0;58.0
26641;DHT22;14269;47.358;0.724;2023-05-29T01:34:49;18.0;58.0
26641;DHT22;14269;47.358;0.724;2023-05-29T01:37:21;18.0;58.0
26641;DHT22;14269;47.358;0.724;2023-05-29T01:39:52;18.0;59.0
26641;DHT22;14269;47.358;0.724;2023-05-29T01:42:25;18.0;59.0
26641;DHT22;14269;47.358;0.724;2023-05-29T01:45:07;18.0;58.0
26641;DHT22;14269;47.358;0.724;2023-05-29T01:47:48;18.0;58.0
26641;DHT22;14269;47.358;0.724;2023-05-29T01:50:20;18.0;59.0
26641;DHT22;14269;47.358;0.724;2023-05-29T01:53:01;18.0;59.0
26641;DHT22;14269;47.358;0.724;2023-05-29T01:55:32;18.0;59.0
26641;DHT22;14269;47.358;0.724;2023-05-29T01:58:04;18.0;59.0
26641;DHT22;14269;47.358;0.724;2023-05-29T02:00:36;18.0;59.0
26641;DHT22;14269;47.358;0.724;2023-05-29T02:03:07;18.0;59.0
26641;DHT22;14269;47.358;0.724;2023-05-29T02:05:39;18.0;59.0
26641;DHT22;14269;47.358;0.724;2023-05-29T02:08:12;18.0;59.0
26641;DHT22;14269;47.358;0.724;2023-05-29T02:10:42;18.0;59.0
26641;DHT22;14269;47.358;0.724;2023-05-29T02:13:14;18.0;59.0
26641;DHT22;14269;47.358;0.724;2023-05-29T02:15:46;18.0;59.0
26641;DHT22;14269;47.358;0.724;2023-05-29T02:18:18;18.0;59.0
26641;DHT22;14269;47.358;0.724;2023-05-29T02:20:59;18.0;59.0
26641;DHT22;14269;47.358;0.724;2023-05-29T02:23:31;18.0;59.0
26641;DHT22;14269;47.358;0.724;2023-05-29T02:26:02;18.0;60.0
26641;DHT22;14269;47.358;0.724;2023-05-29T02:28:34;17.0;60.0
26641;DHT22;14269;47.358;0.724;2023-05-29T02:31:06;17.0;60.0
26641;DHT22;14269;47.358;0.724;2023-05-29T02:33:37;17.0;60.0
26641;DHT22;14269;47.358;0.724;2023-05-29T02:36:11;17.0;60.0
26641;DHT22;14269;47.358;0.724;2023-05-29T02:38:51;17.0;60.0
26641;DHT22;14269;47.358;0.724;2023-05-29T02:41:22;17.0;60.0
26641;DHT22;14269;47.358;0.724;2023-05-29T02:43:54;17.0;60.0
26641;DHT22;14269;47.358;0.724;2023-05-29T02:46:26;17.0;60.0
26641;DHT22;14269;47.358;0.724;2023-05-29T02:48:57;17.0;60.0
26641;DHT22;14269;47.358;0.724;2023-05-29T02:51:30;17.0;60.0
26641;DHT22;14269;47.358;0.724;2023-05-29T02:54:12;17.0;60.0
26641;DHT22;14269;47.358;0.724;2023-05-29T02:56:53;17.0;60.0
26641;DHT22;14269;47.358;0.724;2023-05-29T02:59:24;17.0;60.0
26641;DHT22;14269;47.358;0.724;2023-05-29T03:01:56;17.0;60.0
26641;DHT22;14269;47.358;0.724;2023-05-29T03:04:27;17.0;60.0
26641;DHT22;14269;47.358;0.724;2023-05-29T03:06:59;17.0;60.0
26641;DHT22;14269;47.358;0.724;2023-05-29T03:09:31;17.0;60.0
26641;DHT22;14269;47.358;0.724;2023-05-29T03:12:03;17.0;60.0
26641;DHT22;14269;47.358;0.724;2023-05-29T03:14:36;17.0;60.0
26641;DHT22;14269;47.358;0.724;2023-05-29T03:17:16;17.0;61.0
26641;DHT22;14269;47.358;0.724;2023-05-29T03:19:47;17.0;61.0
26641;DHT22;14269;47.358;0.724;2023-05-29T03:22:19;17.0;61.0
26641;DHT22;14269;47.358;0.724;2023-05-29T03:24:51;17.0;61.0
26641;DHT22;14269;47.358;0.724;2023-05-29T03:27:23;17.0;61.0
26641;DHT22;14269;47.358;0.724;2023-05-29T03:29:54;17.0;61.0
26641;DHT22;14269;47.358;0.724;2023-05-29T03:32:26;17.0;62.0
26641;DHT22;14269;47.358;0.724;2023-05-29T03:34:57;17.0;62.0
26641;DHT22;14269;47.358;0.724;2023-05-29T03:37:29;17.0;62.0
26641;DHT22;14269;47.358;0.724;2023-05-29T03:40:01;17.0;62.0
26641;DHT22;14269;47.358;0.724;2023-05-29T03:42:33;17.0;62.0
26641;DHT22;14269;47.358;0.724;2023-05-29T03:45:04;17.0;62.0
26641;DHT22;14269;47.358;0.724;2023-05-29T03:47:36;17.0;62.0
26641;DHT22;14269;47.358;0.724;2023-05-29T03:50:08;17.0;63.0
26641;DHT22;14269;47.358;0.724;2023-05-29T03:52:49;17.0;63.0
26641;DHT22;14269;47.358;0.724;2023-05-29T03:55:21;17.0;63.0
26641;DHT22;14269;47.358;0.724;2023-05-29T03:57:52;17.0;63.0
26641;DHT22;14269;47.358;0.724;2023-05-29T04:00:24;17.0;63.0
26641;DHT22;14269;47.358;0.724;2023-05-29T04:02:56;17.0;63.0
26641;DHT22;14269;47.358;0.724;2023-05-29T04:05:27;17.0;63.0
26641;DHT22;14269;47.358;0.724;2023-05-29T04:07:59;17.0;63.0
26641;DHT22;14269;47.358;0.724;2023-05-29T04:10:41;17.0;64.0
26641;DHT22;14269;47.358;0.724;2023-05-29T04:13:12;17.0;64.0
26641;DHT22;14269;47.358;0.724;2023-05-29T04:15:44;16.0;65.0
26641;DHT22;14269;47.358;0.724;2023-05-29T04:18:16;17.0;64.0
26641;DHT22;14269;47.358;0.724;2023-05-29T04:20:47;17.0;64.0
26641;DHT22;14269;47.358;0.724;2023-05-29T04:23:19;17.0;64.0
26641;DHT22;14269;47.358;0.724;2023-05-29T04:25:50;16.0;64.0
26641;DHT22;14269;47.358;0.724;2023-05-29T04:28:23;16.0;65.0
26641;DHT22;14269;47.358;0.724;2023-05-29T04:31:05;17.0;64.0
26641;DHT22;14269;47.358;0.724;2023-05-29T04:33:46;16.0;65.0
26641;DHT22;14269;47.358;0.724;2023-05-29T04:36:17;17.0;64.0
26641;DHT22;14269;47.358;0.724;2023-05-29T04:38:59;17.0;64.0
26641;DHT22;14269;47.358;0.724;2023-05-29T04:41:31;17.0;65.0
26641;DHT22;14269;47.358;0.724;2023-05-29T04:44:03;17.0;64.0
26641;DHT22;14269;47.358;0.724;2023-05-29T04:46:44;17.0;64.0
26641;DHT22;14269;47.358;0.724;2023-05-29T04:49:16;17.0;64.0
26641;DHT22;14269;47.358;0.724;2023-05-29T04:51:47;17.0;64.0
26641;DHT22;14269;47.358;0.724;2023-05-29T04:54:21;17.0;64.0
26641;DHT22;14269;47.358;0.724;2023-05-29T04:57:01;17.0;64.0
26641;DHT22;14269;47.358;0.724;2023-05-29T04:59:32;17.0;64.0
26641;DHT22;14269;47.358;0.724;2023-05-29T05:02:04;17.0;64.0
26641;DHT22;14269;47.358;0.724;2023-05-29T05:04:47;17.0;64.0
26641;DHT22;14269;47.358;0.724;2023-05-29T05:07:27;17.0;64.0
26641;DHT22;14269;47.358;0.724;2023-05-29T05:09:59;17.0;65.0
26641;DHT22;14269;47.358;0.724;2023-05-29T05:12:31;17.0;64.0
26641;DHT22;14269;47.358;0.724;2023-05-29T05:15:03;17.0;64.0
26641;DHT22;14269;47.358;0.724;2023-05-29T05:17:44;17.0;64.0
26641;DHT22;14269;47.358;0.724;2023-05-29T05:20:26;17.0;64.0
26641;DHT22;14269;47.358;0.724;2023-05-29T05:22:59;17.0;64.0
26641;DHT22;14269;47.358;0.724;2023-05-29T05:25:40;17.0;64.0
26641;DHT22;14269;47.358;0.724;2023-05-29T05:28:11;17.0;64.0
26641;DHT22;14269;47.358;0.724;2023-05-29T05:30:53;17.0;64.0
26641;DHT22;14269;47.358;0.724;2023-05-29T05:33:24;17.0;64.0
26641;DHT22;14269;47.358;0.724;2023-05-29T05:35:56;17.0;64.0
26641;DHT22;14269;47.358;0.724;2023-05-29T05:38:28;17.0;63.0
26641;DHT22;14269;47.358;0.724;2023-05-29T05:40:59;17.0;63.0
26641;DHT22;14269;47.358;0.724;2023-05-29T05:43:31;17.0;63.0
26641;DHT22;14269;47.358;0.724;2023-05-29T05:46:03;17.0;63.0
26641;DHT22;14269;47.358;0.724;2023-05-29T05:48:34;17.0;63.0
26641;DHT22;14269;47.358;0.724;2023-05-29T05:51:06;17.0;63.0
26641;DHT22;14269;47.358;0.724;2023-05-29T05:53:38;17.0;63.0
26641;DHT22;14269;47.358;0.724;2023-05-29T05:56:09;17.0;63.0
26641;DHT22;14269;47.358;0.724;2023-05-29T05:58:41;17.0;62.0
26641;DHT22;14269;47.358;0.724;2023-05-29T06:01:13;17.0;63.0
26641;DHT22;14269;47.358;0.724;2023-05-29T06:03:54;17.0;62.0
26641;DHT22;14269;47.358;0.724;2023-05-29T06:06:26;17.0;62.0
26641;DHT22;14269;47.358;0.724;2023-05-29T06:08:58;18.0;62.0
26641;DHT22;14269;47.358;0.724;2023-05-29T06:11:29;18.0;63.0
26641;DHT22;14269;47.358;0.724;2023-05-29T06:14:01;18.0;62.0
26641;DHT22;14269;47.358;0.724;2023-05-29T06:16:33;18.0;61.0
26641;DHT22;14269;47.358;0.724;2023-05-29T06:19:15;18.0;61.0
26641;DHT22;14269;47.358;0.724;2023-05-29T06:21:46;18.0;62.0
26641;DHT22;14269;47.358;0.724;2023-05-29T06:24:18;18.0;61.0
26641;DHT22;14269;47.358;0.724;2023-05-29T06:26:50;18.0;61.0
26641;DHT22;14269;47.358;0.724;2023-05-29T06:29:21;18.0;60.0
26641;DHT22;14269;47.358;0.724;2023-05-29T06:31:53;18.0;60.0
26641;DHT22;14269;47.358;0.724;2023-05-29T06:34:24;18.0;60.0
26641;DHT22;14269;47.358;0.724;2023-05-29T06:36:56;18.0;60.0
26641;DHT22;14269;47.358;0.724;2023-05-29T06:39:27;18.0;59.0
26641;DHT22;14269;47.358;0.724;2023-05-29T06:41:59;18.0;59.0
26641;DHT22;14269;47.358;0.724;2023-05-29T06:44:41;19.0;59.0
26641;DHT22;14269;47.358;0.724;2023-05-29T06:47:12;19.0;58.0
26641;DHT22;14269;47.358;0.724;2023-05-29T06:49:44;19.0;58.0
26641;DHT22;14269;47.358;0.724;2023-05-29T06:52:16;19.0;58.0
26641;DHT22;14269;47.358;0.724;2023-05-29T06:54:47;19.0;57.0
26641;DHT22;14269;47.358;0.724;2023-05-29T06:57:19;20.0;56.0
26641;DHT22;14269;47.358;0.724;2023-05-29T06:59:51;20.0;56.0
26641;DHT22;14269;47.358;0.724;2023-05-29T07:02:22;20.0;55.0
26641;DHT22;14269;47.358;0.724;2023-05-29T07:04:54;20.0;55.0
26641;DHT22;14269;47.358;0.724;2023-05-29T07:07:26;20.0;55.0
26641;DHT22;14269;47.358;0.724;2023-05-29T07:09:57;20.0;55.0
26641;DHT22;14269;47.358;0.724;2023-05-29T07:12:29;20.0;55.0
26641;DHT22;14269;47.358;0.724;2023-05-29T07:15:01;20.0;55.0
26641;DHT22;14269;47.358;0.724;2023-05-29T07:17:32;20.0;54.0
26641;DHT22;14269;47.358;0.724;2023-05-29T07:20:07;20.0;54.0
26641;DHT22;14269;47.358;0.724;2023-05-29T07:22:46;21.0;54.0
26641;DHT22;14269;47.358;0.724;2023-05-29T07:25:17;21.0;53.0
26641;DHT22;14269;47.358;0.724;2023-05-29T07:27:49;21.0;53.0
26641;DHT22;14269;47.358;0.724;2023-05-29T07:30:21;20.0;53.0
26641;DHT22;14269;47.358;0.724;2023-05-29T07:32:52;21.0;53.0
26641;DHT22;14269;47.358;0.724;2023-05-29T07:35:24;21.0;54.0
26641;DHT22;14269;47.358;0.724;2023-05-29T07:37:56;21.0;53.0
26641;DHT22;14269;47.358;0.724;2023-05-29T07:40:27;21.0;53.0
26641;DHT22;14269;47.358;0.724;2023-05-29T07:42:59;21.0;52.0
26641;DHT22;14269;47.358;0.724;2023-05-29T07:45:30;21.0;51.0
26641;DHT22;14269;47.358;0.724;2023-05-29T07:48:02;21.0;52.0
26641;DHT22;14269;47.358;0.724;2023-05-29T07:50:34;21.0;52.0
26641;DHT22;14269;47.358;0.724;2023-05-29T07:53:16;22.0;50.0
26641;DHT22;14269;47.358;0.724;2023-05-29T07:55:47;22.0;50.0
26641;DHT22;14269;47.358;0.724;2023-05-29T07:58:19;22.0;50.0
26641;DHT22;14269;47.358;0.724;2023-05-29T08:01:01;22.0;50.0
26641;DHT22;14269;47.358;0.724;2023-05-29T08:03:32;22.0;49.0
26641;DHT22;14269;47.358;0.724;2023-05-29T08:06:04;22.0;50.0
26641;DHT22;14269;47.358;0.724;2023-05-29T08:08:36;23.0;49.0
26641;DHT22;14269;47.358;0.724;2023-05-29T08:11:07;23.0;49.0
26641;DHT22;14269;47.358;0.724;2023-05-29T08:13:39;23.0;49.0
26641;DHT22;14269;47.358;0.724;2023-05-29T08:16:10;23.0;49.0
26641;DHT22;14269;47.358;0.724;2023-05-29T08:18:42;23.0;48.0
26641;DHT22;14269;47.358;0.724;2023-05-29T08:21:14;23.0;48.0
26641;DHT22;14269;47.358;0.724;2023-05-29T08:23:45;23.0;49.0
26641;DHT22;14269;47.358;0.724;2023-05-29T08:26:17;23.0;50.0
26641;DHT22;14269;47.358;0.724;2023-05-29T08:28:50;23.0;50.0
26641;DHT22;14269;47.358;0.724;2023-05-29T08:31:20;23.0;48.0
26641;DHT22;14269;47.358;0.724;2023-05-29T08:33:52;23.0;48.0
26641;DHT22;14269;47.358;0.724;2023-05-29T08:36:24;23.0;48.0
26641;DHT22;14269;47.358;0.724;2023-05-29T08:38:55;23.0;47.0
26641;DHT22;14269;47.358;0.724;2023-05-29T08:41:33;23.0;48.0
26641;DHT22;14269;47.358;0.724;2023-05-29T08:44:13;24.0;48.0
26641;DHT22;14269;47.358;0.724;2023-05-29T08:46:54;23.0;47.0
26641;DHT22;14269;47.358;0.724;2023-05-29T08:49:37;24.0;48.0
26641;DHT22;14269;47.358;0.724;2023-05-29T08:52:16;24.0;47.0
26641;DHT22;14269;47.358;0.724;2023-05-29T08:54:56;24.0;48.0
26641;DHT22;14269;47.358;0.724;2023-05-29T08:57:39;24.0;47.0
26641;DHT22;14269;47.358;0.724;2023-05-29T09:00:20;24.0;47.0
26641;DHT22;14269;47.358;0.724;2023-05-29T09:03:01;24.0;46.0
26641;DHT22;14269;47.358;0.724;2023-05-29T09:05:44;25.0;45.0
26641;DHT22;14269;47.358;0.724;2023-05-29T09:08:26;25.0;46.0
26641;DHT22;14269;47.358;0.724;2023-05-29T09:11:06;25.0;45.0
26641;DHT22;14269;47.358;0.724;2023-05-29T09:13:38;25.0;46.0
26641;DHT22;14269;47.358;0.724;2023-05-29T09:16:10;25.0;46.0
26641;DHT22;14269;47.358;0.724;2023-05-29T09:18:45;25.0;47.0
26641;DHT22;14269;47.358;0.724;2023-05-29T09:21:26;25.0;46.0
26641;DHT22;14269;47.358;0.724;2023-05-29T09:24:05;25.0;44.0
26641;DHT22;14269;47.358;0.724;2023-05-29T09:26:36;25.0;45.0
26641;DHT22;14269;47.358;0.724;2023-05-29T09:29:09;25.0;46.0
26641;DHT22;14269;47.358;0.724;2023-05-29T09:31:46;25.0;45.0
26641;DHT22;14269;47.358;0.724;2023-05-29T09:34:24;26.0;46.0
26641;DHT22;14269;47.358;0.724;2023-05-29T09:37:08;26.0;45.0
26641;DHT22;14269;47.358;0.724;2023-05-29T09:39:46;26.0;45.0
26641;DHT22;14269;47.358;0.724;2023-05-29T09:42:27;26.0;45.0
26641;DHT22;14269;47.358;0.724;2023-05-29T09:45:00;26.0;44.0
26641;DHT22;14269;47.358;0.724;2023-05-29T09:47:40;26.0;44.0
26641;DHT22;14269;47.358;0.724;2023-05-29T09:50:25;26.0;43.0
26641;DHT22;14269;47.358;0.724;2023-05-29T09:53:17;27.0;43.0
26641;DHT22;14269;47.358;0.724;2023-05-29T09:55:56;27.0;43.0
26641;DHT22;14269;47.358;0.724;2023-05-29T09:58:39;27.0;41.0
26641;DHT22;14269;47.358;0.724;2023-05-29T10:01:19;26.0;44.0
26641;DHT22;14269;47.358;0.724;2023-05-29T10:03:51;27.0;44.0
26641;DHT22;14269;47.358;0.724;2023-05-29T10:06:22;26.0;44.0
26641;DHT22;14269;47.358;0.724;2023-05-29T10:08:55;26.0;43.0
26641;DHT22;14269;47.358;0.724;2023-05-29T10:11:37;26.0;44.0
26641;DHT22;14269;47.358;0.724;2023-05-29T10:14:18;27.0;43.0
26641;DHT22;14269;47.358;0.724;2023-05-29T10:17:01;27.0;43.0
26641;DHT22;14269;47.358;0.724;2023-05-29T10:19:42;27.0;41.0
26641;DHT22;14269;47.358;0.724;2023-05-29T10:22:25;27.0;42.0
26641;DHT22;14269;47.358;0.724;2023-05-29T10:25:06;27.0;42.0
26641;DHT22;14269;47.358;0.724;2023-05-29T10:27:47;27.0;43.0
26641;DHT22;14269;47.358;0.724;2023-05-29T10:30:34;27.0;45.0
26641;DHT22;14269;47.358;0.724;2023-05-29T10:33:25;27.0;44.0
26641;DHT22;14269;47.358;0.724;2023-05-29T10:36:07;27.0;44.0
26641;DHT22;14269;47.358;0.724;2023-05-29T10:38:45;27.0;43.0
26641;DHT22;14269;47.358;0.724;2023-05-29T10:41:29;27.0;43.0
26641;DHT22;14269;47.358;0.724;2023-05-29T10:44:40;27.0;44.0
26641;DHT22;14269;47.358;0.724;2023-05-29T10:47:23;27.0;43.0
26641;DHT22;14269;47.358;0.724;2023-05-29T10:50:02;27.0;43.0
26641;DHT22;14269;47.358;0.724;2023-05-29T10:52:46;27.0;40.0
26641;DHT22;14269;47.358;0.724;2023-05-29T10:55:33;27.0;42.0
26641;DHT22;14269;47.358;0.724;2023-05-29T10:58:06;27.0;43.0
26641;DHT22;14269;47.358;0.724;2023-05-29T11:00:41;27.0;43.0
26641;DHT22;14269;47.358;0.724;2023-05-29T11:03:21;27.0;43.0
26641;DHT22;14269;47.358;0.724;2023-05-29T11:06:03;27.0;42.0
26641;DHT22;14269;47.358;0.724;2023-05-29T11:08:46;27.0;42.0
26641;DHT22;14269;47.358;0.724;2023-05-29T11:11:33;28.0;42.0
26641;DHT22;14269;47.358;0.724;2023-05-29T11:14:07;28.0;41.0
26641;DHT22;14269;47.358;0.724;2023-05-29T11:16:38;28.0;40.0
26641;DHT22;14269;47.358;0.724;2023-05-29T11:19:10;28.0;41.0
26641;DHT22;14269;47.358;0.724;2023-05-29T11:21:49;29.0;41.0
26641;DHT22;14269;47.358;0.724;2023-05-29T11:24:37;29.0;40.0
26641;DHT22;14269;47.358;0.724;2023-05-29T11:27:15;28.0;40.0
26641;DHT22;14269;47.358;0.724;2023-05-29T11:29:48;29.0;39.0
26641;DHT22;14269;47.358;0.724;2023-05-29T11:32:29;29.0;37.0
26641;DHT22;14269;47.358;0.724;2023-05-29T11:35:12;29.0;38.0
26641;DHT22;14269;47.358;0.724;2023-05-29T11:37:52;29.0;37.0
26641;DHT22;14269;47.358;0.724;2023-05-29T11:40:24;29.0;37.0
26641;DHT22;14269;47.358;0.724;2023-05-29T11:42:55;29.0;38.0
26641;DHT22;14269;47.358;0.724;2023-05-29T11:45:32;29.0;37.0
26641;DHT22;14269;47.358;0.724;2023-05-29T11:48:09;29.0;38.0
26641;DHT22;14269;47.358;0.724;2023-05-29T11:50:40;29.0;38.0
26641;DHT22;14269;47.358;0.724;2023-05-29T11:53:12;29.0;37.0
26641;DHT22;14269;47.358;0.724;2023-05-29T11:55:43;29.0;38.0
26641;DHT22;14269;47.358;0.724;2023-05-29T11:58:16;29.0;38.0
26641;DHT22;14269;47.358;0.724;2023-05-29T12:00:50;29.0;38.0
26641;DHT22;14269;47.358;0.724;2023-05-29T12:03:29;29.0;38.0
26641;DHT22;14269;47.358;0.724;2023-05-29T12:06:00;29.0;38.0
26641;DHT22;14269;47.358;0.724;2023-05-29T12:08:32;29.0;38.0
26641;DHT22;14269;47.358;0.724;2023-05-29T12:11:04;29.0;37.0
26641;DHT22;14269;47.358;0.724;2023-05-29T12:13:35;28.0;39.0
26641;DHT22;14269;47.358;0.724;2023-05-29T12:16:07;28.0;40.0
26641;DHT22;14269;47.358;0.724;2023-05-29T12:18:38;29.0;39.0
26641;DHT22;14269;47.358;0.724;2023-05-29T12:21:10;29.0;38.0
26641;DHT22;14269;47.358;0.724;2023-05-29T12:23:42;29.0;38.0
26641;DHT22;14269;47.358;0.724;2023-05-29T12:26:15;28.0;40.0
26641;DHT22;14269;47.358;0.724;2023-05-29T12:28:55;28.0;41.0
26641;DHT22;14269;47.358;0.724;2023-05-29T12:31:28;28.0;39.0
26641;DHT22;14269;47.358;0.724;2023-05-29T12:34:11;28.0;39.0
26641;DHT22;14269;47.358;0.724;2023-05-29T12:36:50;28.0;38.0
26641;DHT22;14269;47.358;0.724;2023-05-29T12:39:22;28.0;39.0
26641;DHT22;14269;47.358;0.724;2023-05-29T12:42:06;28.0;38.0
26641;DHT22;14269;47.358;0.724;2023-05-29T12:44:45;28.0;38.0
26641;DHT22;14269;47.358;0.724;2023-05-29T12:47:23;28.0;40.0
26641;DHT22;14269;47.358;0.724;2023-05-29T12:49:59;28.0;39.0
26641;DHT22;14269;47.358;0.724;2023-05-29T12:52:30;28.0;40.0
26641;DHT22;14269;47.358;0.724;2023-05-29T12:55:03;28.0;39.0
26641;DHT22;14269;47.358;0.724;2023-05-29T12:57:34;28.0;39.0
26641;DHT22;14269;47.358;0.724;2023-05-29T13:00:10;28.0;39.0
26641;DHT22;14269;47.358;0.724;2023-05-29T13:02:48;28.0;40.0
26641;DHT22;14269;47.358;0.724;2023-05-29T13:05:19;27.0;40.0
26641;DHT22;14269;47.358;0.724;2023-05-29T13:08:01;28.0;41.0
26641;DHT22;14269;47.358;0.724;2023-05-29T13:10:32;28.0;40.0
26641;DHT22;14269;47.358;0.724;2023-05-29T13:13:14;28.0;39.0
26641;DHT22;14269;47.358;0.724;2023-05-29T13:15:46;28.0;40.0
26641;DHT22;14269;47.358;0.724;2023-05-29T13:18:17;28.0;40.0
26641;DHT22;14269;47.358;0.724;2023-05-29T13:20:49;28.0;39.0
26641;DHT22;14269;47.358;0.724;2023-05-29T13:23:21;28.0;38.0
26641;DHT22;14269;47.358;0.724;2023-05-29T13:25:52;28.0;39.0
26641;DHT22;14269;47.358;0.724;2023-05-29T13:28:24;28.0;36.0
26641;DHT22;14269;47.358;0.724;2023-05-29T13:30:56;28.0;34.0
26641;DHT22;14269;47.358;0.724;2023-05-29T13:33:27;28.0;35.0
26641;DHT22;14269;47.358;0.724;2023-05-29T13:35:59;28.0;34.0
26641;DHT22;14269;47.358;0.724;2023-05-29T13:38:30;28.0;36.0
26641;DHT22;14269;47.358;0.724;2023-05-29T13:41:02;28.0;36.0
26641;DHT22;14269;47.358;0.724;2023-05-29T13:43:35;28.0;35.0
26641;DHT22;14269;47.358;0.724;2023-05-29T13:46:16;28.0;35.0
26641;DHT22;14269;47.358;0.724;2023-05-29T13:48:47;28.0;35.0
26641;DHT22;14269;47.358;0.724;2023-05-29T13:51:19;28.0;36.0
26641;DHT22;14269;47.358;0.724;2023-05-29T13:53:50;28.0;35.0
26641;DHT22;14269;47.358;0.724;2023-05-29T13:56:22;28.0;36.0
26641;DHT22;14269;47.358;0.724;2023-05-29T13:58:54;28.0;34.0
26641;DHT22;14269;47.358;0.724;2023-05-29T14:01:25;28.0;35.0
26641;DHT22;14269;47.358;0.724;2023-05-29T14:03:57;28.0;35.0
26641;DHT22;14269;47.358;0.724;2023-05-29T14:06:29;28.0;34.0
26641;DHT22;14269;47.358;0.724;2023-05-29T14:09:00;28.0;34.0
26641;DHT22;14269;47.358;0.724;2023-05-29T14:11:35;28.0;35.0
26641;DHT22;14269;47.358;0.724;2023-05-29T14:14:15;28.0;36.0
26641;DHT22;14269;47.358;0.724;2023-05-29T14:16:56;28.0;35.0
26641;DHT22;14269;47.358;0.724;2023-05-29T14:19:27;28.0;35.0
26641;DHT22;14269;47.358;0.724;2023-05-29T14:21:59;28.0;37.0
26641;DHT22;14269;47.358;0.724;2023-05-29T14:24:41;28.0;37.0
26641;DHT22;14269;47.358;0.724;2023-05-29T14:27:12;28.0;35.0
26641;DHT22;14269;47.358;0.724;2023-05-29T14:29:46;28.0;37.0
26641;DHT22;14269;47.358;0.724;2023-05-29T14:32:26;28.0;35.0
26641;DHT22;14269;47.358;0.724;2023-05-29T14:34:58;28.0;36.0
26641;DHT22;14269;47.358;0.724;2023-05-29T14:37:29;27.0;36.0
26641;DHT22;14269;47.358;0.724;2023-05-29T14:40:01;28.0;37.0
26641;DHT22;14269;47.358;0.724;2023-05-29T14:42:33;27.0;35.0
26641;DHT22;14269;47.358;0.724;2023-05-29T14:45:05;28.0;35.0
26641;DHT22;14269;47.358;0.724;2023-05-29T14:47:46;27.0;37.0
26641;DHT22;14269;47.358;0.724;2023-05-29T14:50:17;27.0;36.0
26641;DHT22;14269;47.358;0.724;2023-05-29T14:52:49;27.0;37.0
26641;DHT22;14269;47.358;0.724;2023-05-29T14:55:20;28.0;37.0
26641;DHT22;14269;47.358;0.724;2023-05-29T14:57:52;28.0;36.0
26641;DHT22;14269;47.358;0.724;2023-05-29T15:00:24;28.0;37.0
26641;DHT22;14269;47.358;0.724;2023-05-29T15:02:59;28.0;36.0
26641;DHT22;14269;47.358;0.724;2023-05-29T15:05:37;27.0;36.0
26641;DHT22;14269;47.358;0.724;2023-05-29T15:08:09;27.0;36.0
26641;DHT22;14269;47.358;0.724;2023-05-29T15:10:40;27.0;36.0
26641;DHT22;14269;47.358;0.724;2023-05-29T15:13:12;27.0;36.0
26641;DHT22;14269;47.358;0.724;2023-05-29T15:15:44;27.0;36.0
26641;DHT22;14269;47.358;0.724;2023-05-29T15:18:16;27.0;38.0
26641;DHT22;14269;47.358;0.724;2023-05-29T15:20:47;27.0;36.0
26641;DHT22;14269;47.358;0.724;2023-05-29T15:23:19;27.0;36.0
26641;DHT22;14269;47.358;0.724;2023-05-29T15:26:01;27.0;36.0
26641;DHT22;14269;47.358;0.724;2023-05-29T15:28:42;27.0;37.0
26641;DHT22;14269;47.358;0.724;2023-05-29T15:31:14;27.0;37.0
26641;DHT22;14269;47.358;0.724;2023-05-29T15:33:46;27.0;37.0
26641;DHT22;14269;47.358;0.724;2023-05-29T15:36:19;27.0;36.0
26641;DHT22;14269;47.358;0.724;2023-05-29T15:38:59;27.0;38.0
26641;DHT22;14269;47.358;0.724;2023-05-29T15:41:31;27.0;38.0
26641;DHT22;14269;47.358;0.724;2023-05-29T15:44:02;27.0;37.0
26641;DHT22;14269;47.358;0.724;2023-05-29T15:46:34;27.0;37.0
26641;DHT22;14269;47.358;0.724;2023-05-29T15:49:05;27.0;39.0
26641;DHT22;14269;47.358;0.724;2023-05-29T15:51:40;27.0;38.0
26641;DHT22;14269;47.358;0.724;2023-05-29T15:54:19;27.0;38.0
26641;DHT22;14269;47.358;0.724;2023-05-29T15:56:51;27.0;39.0
26641;DHT22;14269;47.358;0.724;2023-05-29T15:59:22;27.0;38.0
26641;DHT22;14269;47.358;0.724;2023-05-29T16:01:54;27.0;38.0
26641;DHT22;14269;47.358;0.724;2023-05-29T16:04:26;27.0;38.0
26641;DHT22;14269;47.358;0.724;2023-05-29T16:06:57;26.0;38.0
26641;DHT22;14269;47.358;0.724;2023-05-29T16:09:29;26.0;38.0
26641;DHT22;14269;47.358;0.724;2023-05-29T16:12:02;26.0;39.0
26641;DHT22;14269;47.358;0.724;2023-05-29T16:14:42;26.0;40.0
26641;DHT22;14269;47.358;0.724;2023-05-29T16:17:14;26.0;39.0
26641;DHT22;14269;47.358;0.724;2023-05-29T16:19:47;26.0;41.0
26641;DHT22;14269;47.358;0.724;2023-05-29T16:22:29;26.0;41.0
26641;DHT22;14269;47.358;0.724;2023-05-29T16:25:09;26.0;39.0
26641;DHT22;14269;47.358;0.724;2023-05-29T16:27:41;26.0;39.0
26641;DHT22;14269;47.358;0.724;2023-05-29T16:30:13;26.0;39.0
26641;DHT22;14269;47.358;0.724;2023-05-29T16:32:44;26.0;40.0
26641;DHT22;14269;47.358;0.724;2023-05-29T16:35:16;26.0;40.0
26641;DHT22;14269;47.358;0.724;2023-05-29T16:37:47;26.0;40.0
26641;DHT22;14269;47.358;0.724;2023-05-29T16:40:20;26.0;41.0
26641;DHT22;14269;47.358;0.724;2023-05-29T16:43:01;26.0;40.0
26641;DHT22;14269;47.358;0.724;2023-05-29T16:45:32;26.0;41.0
26641;DHT22;14269;47.358;0.724;2023-05-29T16:48:05;26.0;41.0
26641;DHT22;14269;47.358;0.724;2023-05-29T16:50:36;26.0;41.0